sensor_id;sensor_type;location;lat;lon;timestamp;P1;durP1;ratioP1;P2;durP2;ratioP2
15406;SDS011;7802;51.568;6.364;2022-07-29T00:02:05;2.00;;;1.60;;
15406;SDS011;7802;51.568;6.364;2022-07-29T00:04:54;2.75;;;1.50;;
15406;SDS011;7802;51.568;6.364;2022-07-29T00:07:44;2.58;;;1.30;;
15406;SDS011;7802;51.568;6.364;2022-07-29T00:10:33;4.30;;;1.55;;
15406;SDS011;7802;51.568;6.364;2022-07-29T00:13:22;3.67;;;1.58;;
15406;SDS011;7802;51.568;6.364;2022-07-29T00:16:18;2.38;;;1.70;;
15406;SDS011;7802;51.568;6.364;2022-07-29T00:19:07;2.03;;;1.52;;
15406;SDS011;7802;51.568;6.364;2022-07-29T00:21:56;3.42;;;1.35;;
15406;SDS011;7802;51.568;6.364;2022-07-29T00:24:48;1.67;;;1.50;;
15406;SDS011;7802;51.568;6.364;2022-07-29T00:27:37;5.07;;;1.48;;
15406;SDS011;7802;51.568;6.364;2022-07-29T00:30:26;1.55;;;1.35;;
15406;SDS011;7802;51.568;6.364;2022-07-29T00:33:14;2.67;;;1.60;;
15406;SDS011;7802;51.568;6.364;2022-07-29T00:36:03;1.88;;;1.42;;
15406;SDS011;7802;51.568;6.364;2022-07-29T00:38:51;1.90;;;1.40;;
15406;SDS011;7802;51.568;6.364;2022-07-29T00:41:41;1.55;;;1.20;;
15406;SDS011;7802;51.568;6.364;2022-07-29T00:44:30;2.58;;;1.17;;
15406;SDS011;7802;51.568;6.364;2022-07-29T00:47:19;2.58;;;1.48;;
15406;SDS011;7802;51.568;6.364;2022-07-29T00:50:08;5.65;;;1.67;;
15406;SDS011;7802;51.568;6.364;2022-07-29T00:52:58;1.67;;;1.30;;
15406;SDS011;7802;51.568;6.364;2022-07-29T00:55:47;3.33;;;1.88;;
15406;SDS011;7802;51.568;6.364;2022-07-29T00:58:39;1.40;;;1.30;;
15406;SDS011;7802;51.568;6.364;2022-07-29T01:01:28;4.68;;;1.60;;
15406;SDS011;7802;51.568;6.364;2022-07-29T01:04:17;2.80;;;1.42;;
15406;SDS011;7802;51.568;6.364;2022-07-29T01:07:05;2.28;;;1.50;;
15406;SDS011;7802;51.568;6.364;2022-07-29T01:09:54;5.35;;;1.42;;
15406;SDS011;7802;51.568;6.364;2022-07-29T01:12:44;2.03;;;1.40;;
15406;SDS011;7802;51.568;6.364;2022-07-29T01:15:43;3.65;;;1.40;;
15406;SDS011;7802;51.568;6.364;2022-07-29T01:18:37;2.05;;;1.40;;
15406;SDS011;7802;51.568;6.364;2022-07-29T01:21:36;5.45;;;1.27;;
15406;SDS011;7802;51.568;6.364;2022-07-29T01:24:45;2.42;;;1.33;;
15406;SDS011;7802;51.568;6.364;2022-07-29T01:28:08;3.42;;;1.60;;
15406;SDS011;7802;51.568;6.364;2022-07-29T01:31:14;1.67;;;1.10;;
15406;SDS011;7802;51.568;6.364;2022-07-29T01:34:12;2.20;;;1.23;;
15406;SDS011;7802;51.568;6.364;2022-07-29T01:37:07;1.23;;;1.23;;
15406;SDS011;7802;51.568;6.364;2022-07-29T01:40:01;1.55;;;1.45;;
15406;SDS011;7802;51.568;6.364;2022-07-29T01:42:54;1.38;;;1.27;;
15406;SDS011;7802;51.568;6.364;2022-07-29T01:45:46;3.22;;;1.40;;
15406;SDS011;7802;51.568;6.364;2022-07-29T01:48:42;3.03;;;1.40;;
15406;SDS011;7802;51.568;6.364;2022-07-29T01:51:35;2.60;;;1.60;;
15406;SDS011;7802;51.568;6.364;2022-07-29T01:54:30;3.05;;;1.50;;
15406;SDS011;7802;51.568;6.364;2022-07-29T01:57:25;2.58;;;1.50;;
15406;SDS011;7802;51.568;6.364;2022-07-29T02:00:16;2.08;;;1.42;;
15406;SDS011;7802;51.568;6.364;2022-07-29T02:03:07;1.77;;;1.10;;
15406;SDS011;7802;51.568;6.364;2022-07-29T02:06:00;1.58;;;1.35;;
15406;SDS011;7802;51.568;6.364;2022-07-29T02:08:51;4.63;;;1.50;;
15406;SDS011;7802;51.568;6.364;2022-07-29T02:11:41;4.40;;;1.52;;
15406;SDS011;7802;51.568;6.364;2022-07-29T02:14:36;3.13;;;1.30;;
15406;SDS011;7802;51.568;6.364;2022-07-29T02:17:28;3.28;;;1.55;;
15406;SDS011;7802;51.568;6.364;2022-07-29T02:20:26;4.38;;;1.73;;
15406;SDS011;7802;51.568;6.364;2022-07-29T02:23:18;3.22;;;1.50;;
15406;SDS011;7802;51.568;6.364;2022-07-29T02:26:09;4.47;;;1.92;;
15406;SDS011;7802;51.568;6.364;2022-07-29T02:28:59;5.40;;;1.80;;
15406;SDS011;7802;51.568;6.364;2022-07-29T02:31:49;2.67;;;1.70;;
15406;SDS011;7802;51.568;6.364;2022-07-29T02:34:39;2.65;;;1.67;;
15406;SDS011;7802;51.568;6.364;2022-07-29T02:37:29;3.80;;;1.98;;
15406;SDS011;7802;51.568;6.364;2022-07-29T02:40:21;3.65;;;1.70;;
15406;SDS011;7802;51.568;6.364;2022-07-29T02:43:10;4.38;;;1.55;;
15406;SDS011;7802;51.568;6.364;2022-07-29T02:46:00;3.08;;;1.58;;
15406;SDS011;7802;51.568;6.364;2022-07-29T02:49:02;6.18;;;1.80;;
15406;SDS011;7802;51.568;6.364;2022-07-29T02:51:57;2.35;;;1.80;;
15406;SDS011;7802;51.568;6.364;2022-07-29T02:54:51;5.95;;;1.98;;
15406;SDS011;7802;51.568;6.364;2022-07-29T02:57:46;4.22;;;1.90;;
15406;SDS011;7802;51.568;6.364;2022-07-29T03:00:41;2.22;;;1.70;;
15406;SDS011;7802;51.568;6.364;2022-07-29T03:03:34;3.85;;;1.88;;
15406;SDS011;7802;51.568;6.364;2022-07-29T03:06:25;4.78;;;1.98;;
15406;SDS011;7802;51.568;6.364;2022-07-29T03:09:24;4.55;;;2.00;;
15406;SDS011;7802;51.568;6.364;2022-07-29T03:12:14;3.15;;;1.55;;
15406;SDS011;7802;51.568;6.364;2022-07-29T03:15:06;5.85;;;1.92;;
15406;SDS011;7802;51.568;6.364;2022-07-29T03:17:56;2.15;;;1.95;;
15406;SDS011;7802;51.568;6.364;2022-07-29T03:20:46;4.88;;;2.10;;
15406;SDS011;7802;51.568;6.364;2022-07-29T03:23:34;5.35;;;2.22;;
15406;SDS011;7802;51.568;6.364;2022-07-29T03:26:23;4.60;;;1.83;;
15406;SDS011;7802;51.568;6.364;2022-07-29T03:29:12;3.92;;;2.22;;
15406;SDS011;7802;51.568;6.364;2022-07-29T03:32:06;3.30;;;1.90;;
15406;SDS011;7802;51.568;6.364;2022-07-29T03:34:56;6.70;;;1.70;;
15406;SDS011;7802;51.568;6.364;2022-07-29T03:37:45;4.15;;;1.85;;
15406;SDS011;7802;51.568;6.364;2022-07-29T03:40:35;3.45;;;1.95;;
15406;SDS011;7802;51.568;6.364;2022-07-29T03:43:28;8.13;;;2.10;;
15406;SDS011;7802;51.568;6.364;2022-07-29T03:46:20;4.10;;;1.70;;
15406;SDS011;7802;51.568;6.364;2022-07-29T03:49:13;4.53;;;2.10;;
15406;SDS011;7802;51.568;6.364;2022-07-29T03:52:04;1.85;;;1.67;;
15406;SDS011;7802;51.568;6.364;2022-07-29T03:54:53;3.03;;;1.95;;
15406;SDS011;7802;51.568;6.364;2022-07-29T03:57:42;2.13;;;1.70;;
15406;SDS011;7802;51.568;6.364;2022-07-29T04:00:33;2.00;;;1.80;;
15406;SDS011;7802;51.568;6.364;2022-07-29T04:03:22;3.90;;;1.85;;
15406;SDS011;7802;51.568;6.364;2022-07-29T04:06:13;3.95;;;2.00;;
15406;SDS011;7802;51.568;6.364;2022-07-29T04:09:02;3.17;;;1.77;;
15406;SDS011;7802;51.568;6.364;2022-07-29T04:11:55;2.83;;;1.85;;
15406;SDS011;7802;51.568;6.364;2022-07-29T04:14:49;3.70;;;1.70;;
15406;SDS011;7802;51.568;6.364;2022-07-29T04:17:38;3.60;;;2.08;;
15406;SDS011;7802;51.568;6.364;2022-07-29T04:20:26;4.93;;;2.13;;
15406;SDS011;7802;51.568;6.364;2022-07-29T04:23:17;3.33;;;2.08;;
15406;SDS011;7802;51.568;6.364;2022-07-29T04:26:05;5.50;;;2.50;;
15406;SDS011;7802;51.568;6.364;2022-07-29T04:28:56;5.15;;;2.42;;
15406;SDS011;7802;51.568;6.364;2022-07-29T04:31:45;4.22;;;2.47;;
15406;SDS011;7802;51.568;6.364;2022-07-29T04:34:34;5.63;;;2.00;;
15406;SDS011;7802;51.568;6.364;2022-07-29T04:37:22;2.80;;;2.15;;
15406;SDS011;7802;51.568;6.364;2022-07-29T04:40:13;2.38;;;2.17;;
15406;SDS011;7802;51.568;6.364;2022-07-29T04:43:02;7.22;;;2.53;;
15406;SDS011;7802;51.568;6.364;2022-07-29T04:45:51;2.42;;;2.10;;
15406;SDS011;7802;51.568;6.364;2022-07-29T04:48:40;3.33;;;2.70;;
15406;SDS011;7802;51.568;6.364;2022-07-29T04:51:29;3.00;;;2.70;;
15406;SDS011;7802;51.568;6.364;2022-07-29T04:54:18;4.05;;;2.60;;
15406;SDS011;7802;51.568;6.364;2022-07-29T04:57:08;3.53;;;2.60;;
15406;SDS011;7802;51.568;6.364;2022-07-29T04:59:57;5.53;;;2.85;;
15406;SDS011;7802;51.568;6.364;2022-07-29T05:02:46;2.65;;;2.20;;
15406;SDS011;7802;51.568;6.364;2022-07-29T05:05:34;2.58;;;2.38;;
15406;SDS011;7802;51.568;6.364;2022-07-29T05:08:23;3.05;;;2.75;;
15406;SDS011;7802;51.568;6.364;2022-07-29T05:11:12;3.45;;;2.60;;
15406;SDS011;7802;51.568;6.364;2022-07-29T05:14:08;5.47;;;2.63;;
15406;SDS011;7802;51.568;6.364;2022-07-29T05:16:57;3.30;;;2.40;;
15406;SDS011;7802;51.568;6.364;2022-07-29T05:19:46;4.78;;;2.75;;
15406;SDS011;7802;51.568;6.364;2022-07-29T05:22:35;3.00;;;2.30;;
15406;SDS011;7802;51.568;6.364;2022-07-29T05:25:24;3.70;;;2.70;;
15406;SDS011;7802;51.568;6.364;2022-07-29T05:28:32;4.05;;;2.88;;
15406;SDS011;7802;51.568;6.364;2022-07-29T05:31:23;2.67;;;2.37;;
15406;SDS011;7802;51.568;6.364;2022-07-29T05:34:11;3.30;;;2.50;;
15406;SDS011;7802;51.568;6.364;2022-07-29T05:37:00;2.87;;;2.53;;
15406;SDS011;7802;51.568;6.364;2022-07-29T05:39:49;4.72;;;2.92;;
15406;SDS011;7802;51.568;6.364;2022-07-29T05:42:43;3.42;;;2.60;;
15406;SDS011;7802;51.568;6.364;2022-07-29T05:45:31;3.58;;;2.72;;
15406;SDS011;7802;51.568;6.364;2022-07-29T05:48:36;4.95;;;3.45;;
15406;SDS011;7802;51.568;6.364;2022-07-29T05:51:25;5.82;;;2.70;;
15406;SDS011;7802;51.568;6.364;2022-07-29T05:54:14;5.38;;;3.00;;
15406;SDS011;7802;51.568;6.364;2022-07-29T05:57:03;4.07;;;3.00;;
15406;SDS011;7802;51.568;6.364;2022-07-29T05:59:52;4.73;;;3.37;;
15406;SDS011;7802;51.568;6.364;2022-07-29T06:02:41;4.85;;;3.20;;
15406;SDS011;7802;51.568;6.364;2022-07-29T06:05:31;5.70;;;3.00;;
15406;SDS011;7802;51.568;6.364;2022-07-29T06:08:20;4.65;;;3.38;;
15406;SDS011;7802;51.568;6.364;2022-07-29T06:11:09;4.32;;;3.17;;
15406;SDS011;7802;51.568;6.364;2022-07-29T06:13:57;4.60;;;3.20;;
15406;SDS011;7802;51.568;6.364;2022-07-29T06:16:46;4.83;;;2.90;;
15406;SDS011;7802;51.568;6.364;2022-07-29T06:19:35;3.83;;;3.30;;
15406;SDS011;7802;51.568;6.364;2022-07-29T06:22:25;3.73;;;3.17;;
15406;SDS011;7802;51.568;6.364;2022-07-29T06:25:14;4.50;;;3.20;;
15406;SDS011;7802;51.568;6.364;2022-07-29T06:28:03;4.78;;;3.67;;
15406;SDS011;7802;51.568;6.364;2022-07-29T06:30:52;4.25;;;3.25;;
15406;SDS011;7802;51.568;6.364;2022-07-29T06:33:40;4.43;;;3.33;;
15406;SDS011;7802;51.568;6.364;2022-07-29T06:36:29;4.22;;;3.05;;
15406;SDS011;7802;51.568;6.364;2022-07-29T06:39:19;4.05;;;3.60;;
15406;SDS011;7802;51.568;6.364;2022-07-29T06:42:08;4.53;;;3.88;;
15406;SDS011;7802;51.568;6.364;2022-07-29T06:44:57;6.15;;;3.17;;
15406;SDS011;7802;51.568;6.364;2022-07-29T06:47:46;4.15;;;3.60;;
15406;SDS011;7802;51.568;6.364;2022-07-29T06:50:35;3.70;;;3.25;;
15406;SDS011;7802;51.568;6.364;2022-07-29T06:53:24;3.35;;;3.05;;
15406;SDS011;7802;51.568;6.364;2022-07-29T06:56:14;3.58;;;3.28;;
15406;SDS011;7802;51.568;6.364;2022-07-29T06:59:03;5.22;;;3.70;;
15406;SDS011;7802;51.568;6.364;2022-07-29T07:01:51;4.10;;;3.80;;
15406;SDS011;7802;51.568;6.364;2022-07-29T07:04:40;6.03;;;3.60;;
15406;SDS011;7802;51.568;6.364;2022-07-29T07:07:29;4.43;;;3.63;;
15406;SDS011;7802;51.568;6.364;2022-07-29T07:10:18;3.58;;;3.28;;
15406;SDS011;7802;51.568;6.364;2022-07-29T07:13:08;5.35;;;3.40;;
15406;SDS011;7802;51.568;6.364;2022-07-29T07:15:57;6.32;;;3.78;;
15406;SDS011;7802;51.568;6.364;2022-07-29T07:18:45;3.88;;;3.42;;
15406;SDS011;7802;51.568;6.364;2022-07-29T07:21:34;3.97;;;3.67;;
15406;SDS011;7802;51.568;6.364;2022-07-29T07:24:22;4.32;;;3.92;;
15406;SDS011;7802;51.568;6.364;2022-07-29T07:27:11;5.00;;;3.53;;
15406;SDS011;7802;51.568;6.364;2022-07-29T07:30:02;3.97;;;3.58;;
15406;SDS011;7802;51.568;6.364;2022-07-29T07:32:52;4.93;;;3.55;;
15406;SDS011;7802;51.568;6.364;2022-07-29T07:35:41;4.15;;;3.67;;
15406;SDS011;7802;51.568;6.364;2022-07-29T07:38:31;4.28;;;3.53;;
15406;SDS011;7802;51.568;6.364;2022-07-29T07:41:19;7.45;;;3.88;;
15406;SDS011;7802;51.568;6.364;2022-07-29T07:44:09;4.40;;;4.10;;
15406;SDS011;7802;51.568;6.364;2022-07-29T07:47:03;5.00;;;4.60;;
15406;SDS011;7802;51.568;6.364;2022-07-29T07:49:58;4.35;;;4.03;;
15406;SDS011;7802;51.568;6.364;2022-07-29T07:52:47;5.25;;;4.25;;
15406;SDS011;7802;51.568;6.364;2022-07-29T07:55:39;5.45;;;4.40;;
15406;SDS011;7802;51.568;6.364;2022-07-29T07:58:48;4.05;;;3.67;;
15406;SDS011;7802;51.568;6.364;2022-07-29T08:01:37;5.30;;;4.80;;
15406;SDS011;7802;51.568;6.364;2022-07-29T08:04:42;4.10;;;3.80;;
15406;SDS011;7802;51.568;6.364;2022-07-29T08:07:31;5.55;;;4.10;;
15406;SDS011;7802;51.568;6.364;2022-07-29T08:10:20;6.70;;;4.28;;
15406;SDS011;7802;51.568;6.364;2022-07-29T08:13:23;4.70;;;4.20;;
15406;SDS011;7802;51.568;6.364;2022-07-29T08:16:14;5.50;;;4.10;;
15406;SDS011;7802;51.568;6.364;2022-07-29T08:19:03;5.15;;;4.40;;
15406;SDS011;7802;51.568;6.364;2022-07-29T08:21:53;5.63;;;4.40;;
15406;SDS011;7802;51.568;6.364;2022-07-29T08:24:42;5.30;;;4.68;;
15406;SDS011;7802;51.568;6.364;2022-07-29T08:27:33;4.80;;;4.40;;
15406;SDS011;7802;51.568;6.364;2022-07-29T08:30:30;5.32;;;4.80;;
15406;SDS011;7802;51.568;6.364;2022-07-29T08:33:18;5.32;;;4.38;;
15406;SDS011;7802;51.568;6.364;2022-07-29T08:36:07;5.38;;;4.88;;
15406;SDS011;7802;51.568;6.364;2022-07-29T08:38:57;5.28;;;4.88;;
15406;SDS011;7802;51.568;6.364;2022-07-29T08:41:46;4.85;;;4.38;;
15406;SDS011;7802;51.568;6.364;2022-07-29T08:44:43;6.43;;;4.50;;
15406;SDS011;7802;51.568;6.364;2022-07-29T08:47:32;5.00;;;4.15;;
15406;SDS011;7802;51.568;6.364;2022-07-29T08:50:23;6.25;;;4.18;;
15406;SDS011;7802;51.568;6.364;2022-07-29T08:53:12;5.72;;;4.30;;
15406;SDS011;7802;51.568;6.364;2022-07-29T08:56:04;7.68;;;4.18;;
15406;SDS011;7802;51.568;6.364;2022-07-29T08:58:53;5.95;;;4.38;;
15406;SDS011;7802;51.568;6.364;2022-07-29T09:01:42;4.88;;;4.40;;
15406;SDS011;7802;51.568;6.364;2022-07-29T09:04:33;5.18;;;4.15;;
15406;SDS011;7802;51.568;6.364;2022-07-29T09:07:23;6.07;;;4.40;;
15406;SDS011;7802;51.568;6.364;2022-07-29T09:10:20;7.00;;;4.30;;
15406;SDS011;7802;51.568;6.364;2022-07-29T09:13:10;5.85;;;4.57;;
15406;SDS011;7802;51.568;6.364;2022-07-29T09:15:59;6.05;;;4.20;;
15406;SDS011;7802;51.568;6.364;2022-07-29T09:18:54;6.82;;;4.25;;
15406;SDS011;7802;51.568;6.364;2022-07-29T09:21:43;5.05;;;4.47;;
15406;SDS011;7802;51.568;6.364;2022-07-29T09:24:49;5.07;;;4.57;;
15406;SDS011;7802;51.568;6.364;2022-07-29T09:27:38;4.82;;;4.43;;
15406;SDS011;7802;51.568;6.364;2022-07-29T09:30:28;7.20;;;5.32;;
15406;SDS011;7802;51.568;6.364;2022-07-29T09:33:17;6.70;;;5.22;;
15406;SDS011;7802;51.568;6.364;2022-07-29T09:36:07;5.45;;;4.95;;
15406;SDS011;7802;51.568;6.364;2022-07-29T09:38:58;5.18;;;4.78;;
15406;SDS011;7802;51.568;6.364;2022-07-29T09:41:48;6.45;;;4.85;;
15406;SDS011;7802;51.568;6.364;2022-07-29T09:44:40;5.10;;;4.57;;
15406;SDS011;7802;51.568;6.364;2022-07-29T09:47:39;6.07;;;4.50;;
15406;SDS011;7802;51.568;6.364;2022-07-29T09:50:34;5.63;;;5.13;;
15406;SDS011;7802;51.568;6.364;2022-07-29T09:53:31;5.63;;;4.88;;
15406;SDS011;7802;51.568;6.364;2022-07-29T09:56:23;5.78;;;5.20;;
15406;SDS011;7802;51.568;6.364;2022-07-29T09:59:27;5.70;;;4.70;;
15406;SDS011;7802;51.568;6.364;2022-07-29T10:02:15;5.65;;;4.65;;
15406;SDS011;7802;51.568;6.364;2022-07-29T10:05:18;5.18;;;4.45;;
15406;SDS011;7802;51.568;6.364;2022-07-29T10:08:08;6.65;;;4.30;;
15406;SDS011;7802;51.568;6.364;2022-07-29T10:11:08;5.68;;;4.75;;
15406;SDS011;7802;51.568;6.364;2022-07-29T10:13:58;4.00;;;3.60;;
15406;SDS011;7802;51.568;6.364;2022-07-29T10:16:49;6.35;;;4.93;;
15406;SDS011;7802;51.568;6.364;2022-07-29T10:19:38;4.63;;;4.18;;
15406;SDS011;7802;51.568;6.364;2022-07-29T10:22:30;4.72;;;4.32;;
15406;SDS011;7802;51.568;6.364;2022-07-29T10:25:38;7.07;;;4.53;;
15406;SDS011;7802;51.568;6.364;2022-07-29T10:28:32;41.65;;;8.27;;
15406;SDS011;7802;51.568;6.364;2022-07-29T10:31:22;4.82;;;4.10;;
15406;SDS011;7802;51.568;6.364;2022-07-29T10:34:18;4.60;;;4.20;;
15406;SDS011;7802;51.568;6.364;2022-07-29T10:37:16;98.47;;;15.10;;
15406;SDS011;7802;51.568;6.364;2022-07-29T10:40:28;4.82;;;4.28;;
15406;SDS011;7802;51.568;6.364;2022-07-29T10:43:44;11.20;;;4.90;;
15406;SDS011;7802;51.568;6.364;2022-07-29T10:46:39;5.82;;;4.10;;
15406;SDS011;7802;51.568;6.364;2022-07-29T10:49:29;11.65;;;4.97;;
15406;SDS011;7802;51.568;6.364;2022-07-29T10:52:18;6.07;;;4.93;;
15406;SDS011;7802;51.568;6.364;2022-07-29T10:58:23;9.90;;;4.60;;
15406;SDS011;7802;51.568;6.364;2022-07-29T11:01:28;19.15;;;6.18;;
15406;SDS011;7802;51.568;6.364;2022-07-29T11:14:56;5.35;;;4.00;;
15406;SDS011;7802;51.568;6.364;2022-07-29T11:21:02;5.32;;;3.72;;
15406;SDS011;7802;51.568;6.364;2022-07-29T11:23:51;4.32;;;3.92;;
15406;SDS011;7802;51.568;6.364;2022-07-29T11:27:16;4.68;;;4.13;;
15406;SDS011;7802;51.568;6.364;2022-07-29T11:30:07;4.97;;;4.45;;
15406;SDS011;7802;51.568;6.364;2022-07-29T11:32:58;7.30;;;4.15;;
15406;SDS011;7802;51.568;6.364;2022-07-29T11:45:44;4.85;;;3.70;;
15406;SDS011;7802;51.568;6.364;2022-07-29T11:48:34;4.35;;;3.95;;
15406;SDS011;7802;51.568;6.364;2022-07-29T11:51:23;6.03;;;3.53;;
15406;SDS011;7802;51.568;6.364;2022-07-29T11:54:21;3.72;;;3.20;;
15406;SDS011;7802;51.568;6.364;2022-07-29T11:57:13;4.30;;;3.90;;
15406;SDS011;7802;51.568;6.364;2022-07-29T12:00:07;4.65;;;3.30;;
15406;SDS011;7802;51.568;6.364;2022-07-29T12:02:59;4.68;;;3.10;;
15406;SDS011;7802;51.568;6.364;2022-07-29T12:05:49;3.72;;;2.83;;
15406;SDS011;7802;51.568;6.364;2022-07-29T12:08:39;6.25;;;3.45;;
15406;SDS011;7802;51.568;6.364;2022-07-29T12:11:30;3.72;;;3.25;;
15406;SDS011;7802;51.568;6.364;2022-07-29T12:14:25;4.50;;;3.42;;
15406;SDS011;7802;51.568;6.364;2022-07-29T12:20:24;3.13;;;2.60;;
15406;SDS011;7802;51.568;6.364;2022-07-29T12:23:15;3.22;;;2.35;;
15406;SDS011;7802;51.568;6.364;2022-07-29T12:26:04;6.18;;;2.80;;
15406;SDS011;7802;51.568;6.364;2022-07-29T12:29:14;4.28;;;3.38;;
15406;SDS011;7802;51.568;6.364;2022-07-29T12:32:19;4.20;;;3.00;;
15406;SDS011;7802;51.568;6.364;2022-07-29T12:35:10;4.50;;;2.85;;
15406;SDS011;7802;51.568;6.364;2022-07-29T12:38:02;4.50;;;3.05;;
15406;SDS011;7802;51.568;6.364;2022-07-29T12:40:51;3.92;;;3.08;;
15406;SDS011;7802;51.568;6.364;2022-07-29T12:43:51;3.70;;;2.72;;
15406;SDS011;7802;51.568;6.364;2022-07-29T12:46:41;5.47;;;3.00;;
15406;SDS011;7802;51.568;6.364;2022-07-29T12:49:30;3.40;;;2.78;;
15406;SDS011;7802;51.568;6.364;2022-07-29T12:52:37;3.33;;;2.88;;
15406;SDS011;7802;51.568;6.364;2022-07-29T12:55:39;4.28;;;2.90;;
15406;SDS011;7802;51.568;6.364;2022-07-29T12:58:36;6.38;;;3.10;;
15406;SDS011;7802;51.568;6.364;2022-07-29T13:01:25;3.20;;;2.90;;
15406;SDS011;7802;51.568;6.364;2022-07-29T13:04:23;4.50;;;2.60;;
15406;SDS011;7802;51.568;6.364;2022-07-29T13:07:13;3.78;;;2.75;;
15406;SDS011;7802;51.568;6.364;2022-07-29T13:10:35;3.35;;;2.95;;
15406;SDS011;7802;51.568;6.364;2022-07-29T13:13:24;4.22;;;2.70;;
15406;SDS011;7802;51.568;6.364;2022-07-29T13:16:13;3.53;;;2.67;;
15406;SDS011;7802;51.568;6.364;2022-07-29T13:19:06;3.28;;;2.38;;
15406;SDS011;7802;51.568;6.364;2022-07-29T13:21:56;3.40;;;2.55;;
15406;SDS011;7802;51.568;6.364;2022-07-29T13:24:49;5.93;;;2.60;;
15406;SDS011;7802;51.568;6.364;2022-07-29T13:27:40;3.60;;;2.60;;
15406;SDS011;7802;51.568;6.364;2022-07-29T13:30:31;4.65;;;2.90;;
15406;SDS011;7802;51.568;6.364;2022-07-29T13:33:20;3.15;;;2.50;;
15406;SDS011;7802;51.568;6.364;2022-07-29T13:36:08;3.90;;;2.67;;
15406;SDS011;7802;51.568;6.364;2022-07-29T13:38:57;3.88;;;2.40;;
15406;SDS011;7802;51.568;6.364;2022-07-29T13:41:47;4.20;;;2.30;;
15406;SDS011;7802;51.568;6.364;2022-07-29T13:44:38;3.53;;;2.78;;
15406;SDS011;7802;51.568;6.364;2022-07-29T13:47:27;4.43;;;2.45;;
15406;SDS011;7802;51.568;6.364;2022-07-29T13:50:19;3.92;;;2.65;;
15406;SDS011;7802;51.568;6.364;2022-07-29T13:53:08;3.17;;;2.50;;
15406;SDS011;7802;51.568;6.364;2022-07-29T13:56:04;2.58;;;2.03;;
15406;SDS011;7802;51.568;6.364;2022-07-29T13:58:53;5.25;;;2.92;;
15406;SDS011;7802;51.568;6.364;2022-07-29T14:01:43;4.32;;;2.30;;
15406;SDS011;7802;51.568;6.364;2022-07-29T14:04:32;5.05;;;2.50;;
15406;SDS011;7802;51.568;6.364;2022-07-29T14:07:25;5.60;;;2.47;;
15406;SDS011;7802;51.568;6.364;2022-07-29T14:10:14;4.13;;;2.10;;
15406;SDS011;7802;51.568;6.364;2022-07-29T14:13:06;3.45;;;2.05;;
15406;SDS011;7802;51.568;6.364;2022-07-29T14:16:10;4.53;;;2.00;;
15406;SDS011;7802;51.568;6.364;2022-07-29T14:19:00;3.25;;;2.30;;
15406;SDS011;7802;51.568;6.364;2022-07-29T14:21:49;5.03;;;2.28;;
15406;SDS011;7802;51.568;6.364;2022-07-29T14:24:38;5.13;;;2.50;;
15406;SDS011;7802;51.568;6.364;2022-07-29T14:27:28;4.35;;;2.42;;
15406;SDS011;7802;51.568;6.364;2022-07-29T14:30:24;2.95;;;2.40;;
15406;SDS011;7802;51.568;6.364;2022-07-29T14:33:13;4.55;;;2.13;;
15406;SDS011;7802;51.568;6.364;2022-07-29T14:36:03;3.70;;;2.20;;
15406;SDS011;7802;51.568;6.364;2022-07-29T14:38:52;4.53;;;2.30;;
15406;SDS011;7802;51.568;6.364;2022-07-29T14:41:41;2.70;;;1.90;;
15406;SDS011;7802;51.568;6.364;2022-07-29T14:44:30;5.43;;;2.03;;
15406;SDS011;7802;51.568;6.364;2022-07-29T14:47:18;4.22;;;2.15;;
15406;SDS011;7802;51.568;6.364;2022-07-29T14:50:08;2.85;;;2.00;;
15406;SDS011;7802;51.568;6.364;2022-07-29T14:52:59;2.72;;;2.03;;
15406;SDS011;7802;51.568;6.364;2022-07-29T14:55:48;4.40;;;2.17;;
15406;SDS011;7802;51.568;6.364;2022-07-29T14:58:36;4.97;;;1.90;;
15406;SDS011;7802;51.568;6.364;2022-07-29T15:01:37;2.50;;;2.00;;
15406;SDS011;7802;51.568;6.364;2022-07-29T15:04:26;5.30;;;2.28;;
15406;SDS011;7802;51.568;6.364;2022-07-29T15:07:15;3.30;;;2.30;;
15406;SDS011;7802;51.568;6.364;2022-07-29T15:10:06;2.97;;;1.92;;
15406;SDS011;7802;51.568;6.364;2022-07-29T15:12:55;2.20;;;2.03;;
15406;SDS011;7802;51.568;6.364;2022-07-29T15:15:44;2.67;;;1.90;;
15406;SDS011;7802;51.568;6.364;2022-07-29T15:18:32;2.75;;;2.22;;
15406;SDS011;7802;51.568;6.364;2022-07-29T15:21:21;2.35;;;2.13;;
15406;SDS011;7802;51.568;6.364;2022-07-29T15:24:10;4.47;;;2.20;;
15406;SDS011;7802;51.568;6.364;2022-07-29T15:27:00;2.08;;;1.90;;
15406;SDS011;7802;51.568;6.364;2022-07-29T15:29:49;4.00;;;2.10;;
15406;SDS011;7802;51.568;6.364;2022-07-29T15:32:38;6.05;;;2.63;;
15406;SDS011;7802;51.568;6.364;2022-07-29T15:35:26;2.80;;;2.30;;
15406;SDS011;7802;51.568;6.364;2022-07-29T15:38:15;2.55;;;2.00;;
15406;SDS011;7802;51.568;6.364;2022-07-29T15:41:04;4.13;;;2.40;;
15406;SDS011;7802;51.568;6.364;2022-07-29T15:43:54;2.67;;;2.10;;
15406;SDS011;7802;51.568;6.364;2022-07-29T15:46:43;2.20;;;2.00;;
15406;SDS011;7802;51.568;6.364;2022-07-29T15:49:49;2.50;;;2.03;;
15406;SDS011;7802;51.568;6.364;2022-07-29T15:52:38;3.22;;;2.50;;
15406;SDS011;7802;51.568;6.364;2022-07-29T15:55:27;2.58;;;2.20;;
15406;SDS011;7802;51.568;6.364;2022-07-29T15:58:15;3.30;;;2.30;;
15406;SDS011;7802;51.568;6.364;2022-07-29T16:01:05;4.22;;;2.30;;
15406;SDS011;7802;51.568;6.364;2022-07-29T16:03:54;3.22;;;2.20;;
15406;SDS011;7802;51.568;6.364;2022-07-29T16:06:45;2.55;;;2.30;;
15406;SDS011;7802;51.568;6.364;2022-07-29T16:09:35;2.30;;;2.10;;
15406;SDS011;7802;51.568;6.364;2022-07-29T16:12:24;5.25;;;2.22;;
15406;SDS011;7802;51.568;6.364;2022-07-29T16:15:12;2.78;;;2.30;;
15406;SDS011;7802;51.568;6.364;2022-07-29T16:18:03;3.00;;;2.13;;
15406;SDS011;7802;51.568;6.364;2022-07-29T16:20:52;2.45;;;2.25;;
15406;SDS011;7802;51.568;6.364;2022-07-29T16:23:40;3.90;;;2.28;;
15406;SDS011;7802;51.568;6.364;2022-07-29T16:26:29;4.30;;;1.90;;
15406;SDS011;7802;51.568;6.364;2022-07-29T16:29:18;2.70;;;2.33;;
15406;SDS011;7802;51.568;6.364;2022-07-29T16:32:07;2.55;;;2.35;;
15406;SDS011;7802;51.568;6.364;2022-07-29T16:34:58;2.70;;;2.30;;
15406;SDS011;7802;51.568;6.364;2022-07-29T16:37:48;2.45;;;2.25;;
15406;SDS011;7802;51.568;6.364;2022-07-29T16:40:36;4.93;;;2.30;;
15406;SDS011;7802;51.568;6.364;2022-07-29T16:43:25;4.10;;;2.10;;
15406;SDS011;7802;51.568;6.364;2022-07-29T16:46:14;3.90;;;2.60;;
15406;SDS011;7802;51.568;6.364;2022-07-29T16:49:05;2.85;;;2.40;;
15406;SDS011;7802;51.568;6.364;2022-07-29T16:51:55;6.82;;;2.50;;
15406;SDS011;7802;51.568;6.364;2022-07-29T16:54:45;5.15;;;2.47;;
15406;SDS011;7802;51.568;6.364;2022-07-29T16:57:33;3.95;;;2.28;;
15406;SDS011;7802;51.568;6.364;2022-07-29T17:00:22;5.22;;;2.47;;
15406;SDS011;7802;51.568;6.364;2022-07-29T17:03:11;3.53;;;2.50;;
15406;SDS011;7802;51.568;6.364;2022-07-29T17:05:59;3.15;;;2.78;;
15406;SDS011;7802;51.568;6.364;2022-07-29T17:08:49;3.50;;;2.30;;
15406;SDS011;7802;51.568;6.364;2022-07-29T17:11:38;3.92;;;2.50;;
15406;SDS011;7802;51.568;6.364;2022-07-29T17:14:39;3.42;;;2.50;;
15406;SDS011;7802;51.568;6.364;2022-07-29T17:17:28;2.85;;;2.20;;
15406;SDS011;7802;51.568;6.364;2022-07-29T17:20:25;2.97;;;2.30;;
15406;SDS011;7802;51.568;6.364;2022-07-29T17:23:15;2.80;;;2.35;;
15406;SDS011;7802;51.568;6.364;2022-07-29T17:26:05;5.20;;;2.35;;
15406;SDS011;7802;51.568;6.364;2022-07-29T17:28:53;2.78;;;2.40;;
15406;SDS011;7802;51.568;6.364;2022-07-29T17:31:42;3.65;;;2.17;;
15406;SDS011;7802;51.568;6.364;2022-07-29T17:34:31;2.25;;;2.10;;
15406;SDS011;7802;51.568;6.364;2022-07-29T17:37:21;3.72;;;2.30;;
15406;SDS011;7802;51.568;6.364;2022-07-29T17:40:10;3.83;;;2.10;;
15406;SDS011;7802;51.568;6.364;2022-07-29T17:43:00;6.00;;;2.70;;
15406;SDS011;7802;51.568;6.364;2022-07-29T17:45:51;3.15;;;2.40;;
15406;SDS011;7802;51.568;6.364;2022-07-29T17:48:45;3.35;;;2.55;;
15406;SDS011;7802;51.568;6.364;2022-07-29T17:51:34;3.65;;;2.63;;
15406;SDS011;7802;51.568;6.364;2022-07-29T17:54:23;4.35;;;2.85;;
15406;SDS011;7802;51.568;6.364;2022-07-29T17:57:12;2.95;;;2.40;;
15406;SDS011;7802;51.568;6.364;2022-07-29T18:00:03;6.32;;;2.92;;